Kenton, DE (19955)

21:31 EDT le 23 août 2016 (GMT -0400)
Northridge | | Change Station

Alt. 26 ft 39.25 °N, 75.60 °W | Updated 58 seconds ago

Clear
Ciel dégagé
67.0 ° F
Paraît 67.0 ° F
N
0.0
Vent Variable Vent de ENE
Gusts 0.0 mph

Aujourd'hui
Haut(e) -- | Bas -- ° F
--% Risque de précip.
Hier
Haut(e) -- | Bas -- ° F
Precip. -- pouce
Pression 30.28 pouce
Visibilité 10.0 Miles terrestres
Nuages Ciel dégagé
Point de rosée 63 ° F
Humidité 86%
Précipitations 0.00 pouce
Profondeur de la couche neigeuse Non disponible.
6:23 AM 7:46 PM
Lune gibbeuse décroissante, 62% visible
METAR KDOV 240058Z AUTO 17005KT 10SM CLR 21/17 A3027 RMK AO2 SLP253 T02060173 $
Pression 30.28 pouce
Visibilité 10.0 Miles terrestres
Nuages Ciel dégagé
Point de rosée 63 ° F
Humidité 86%
Précipitations 0.00 pouce
Profondeur de la couche neigeuse Non disponible.
6:23 AM 7:46 PM
Lune gibbeuse décroissante, 62% visible
METAR KDOV 240058Z AUTO 17005KT 10SM CLR 21/17 A3027 RMK AO2 SLP253 T02060173 $

10-Day Weather Forecast

Almanac

Astronomie

Aug. 23, 2016 Lever Coucher
Temps réel
Crépuscule civil
Crépuscule nautique
Crépuscule astronomique
Lune
Durée de lumière visible
Longueur du jour
Tomorrow will be .
, % of the Moon is Illuminated

Extrêmes aujourd'hui

State Highs State Lows

Community

WunderPhotos

Upload Photos

1,934,517 Photos téléchargées !

WunderBlog® & News

Nearby

Qualité de l'air

  Qualité de l'air Indice de la qualité de l'air Polluant
Not available.

Épaisseur de neige

Station Depth Altitude

Activité sismique

Ville Distance Mag. Time & Date
Minimum magnitude displayed is 2.5.

Températures des eaux côtières

Lieu Température

Stations

Stations météo à proximité

Emplacement de la station Température Refroidissement éolien Point de rosée Humidité Vent Precip. Alt. Mise à jour Type
                   

Watches & Warnings

There are currently no watches in effect.